createdAt,value
2022-12-11T00:00:56.272Z,83.82
2022-12-11T00:03:24.061Z,84.88
2022-12-11T00:05:51.747Z,84.89
2022-12-11T00:08:19.472Z,84.81
2022-12-11T00:10:50.155Z,83.97
2022-12-11T00:13:19.153Z,84.24
2022-12-11T00:15:46.771Z,84.54
2022-12-11T00:18:16.376Z,83.79
2022-12-11T00:20:44.201Z,83.59
2022-12-11T00:23:12.028Z,83.06
2022-12-11T00:25:42.536Z,83.49
2022-12-11T00:28:10.308Z,82.29
2022-12-11T00:30:41.980Z,81.58
2022-12-11T00:33:12.758Z,82.17
2022-12-11T00:35:40.513Z,82.63
2022-12-11T00:38:09.173Z,83.43
2022-12-11T00:40:38.489Z,82.56
2022-12-11T00:43:06.412Z,82.66
2022-12-11T00:45:37.905Z,82.69
2022-12-11T00:48:08.930Z,83.28
2022-12-11T00:50:37.028Z,82.72
2022-12-11T00:53:06.102Z,82.85
2022-12-11T00:55:40.171Z,82.89
2022-12-11T00:58:08.504Z,83.58
2022-12-11T01:00:36.783Z,83.32
2022-12-11T01:03:05.175Z,83.72
2022-12-11T01:05:34.790Z,83.46
2022-12-11T01:08:02.453Z,84.29
2022-12-11T01:10:29.261Z,83.67
2022-12-11T01:12:58.637Z,84.00
2022-12-11T01:15:28.828Z,84.31
2022-12-11T01:17:57.186Z,84.24
2022-12-11T01:20:26.507Z,84.10
2022-12-11T01:22:56.816Z,84.06
2022-12-11T01:25:26.050Z,84.67
2022-12-11T01:27:54.853Z,84.75
2022-12-11T01:30:24.883Z,84.71
2022-12-11T01:32:53.173Z,83.65
2022-12-11T01:35:21.614Z,83.69
2022-12-11T01:37:49.712Z,83.63
2022-12-11T01:40:21.027Z,83.37
2022-12-11T01:42:48.819Z,82.80
2022-12-11T01:45:33.545Z,83.15
2022-12-11T01:48:06.247Z,82.51
2022-12-11T01:50:37.144Z,83.29
2022-12-11T01:53:08.110Z,84.24
2022-12-11T01:55:39.833Z,84.38
2022-12-11T01:58:10.185Z,84.27
2022-12-11T02:00:37.767Z,84.21
2022-12-11T02:03:05.892Z,84.15
2022-12-11T02:05:33.543Z,83.95
2022-12-11T02:08:04.034Z,83.38
2022-12-11T02:10:48.634Z,83.90
2022-12-11T02:13:22.582Z,83.76
2022-12-11T02:15:57.708Z,84.20
2022-12-11T02:18:32.659Z,83.97
2022-12-11T02:21:08.195Z,83.62
2022-12-11T02:23:58.575Z,82.95
2022-12-11T02:26:49.979Z,82.31
2022-12-11T02:29:23.819Z,82.42
2022-12-11T02:31:56.898Z,82.56
2022-12-11T02:34:31.986Z,81.56
2022-12-11T02:37:05.376Z,81.78
2022-12-11T02:39:36.716Z,82.21
2022-12-11T02:42:05.865Z,82.25
2022-12-11T02:44:35.996Z,82.04
2022-12-11T02:47:07.958Z,81.08
2022-12-11T02:49:36.463Z,81.67
2022-12-11T02:52:07.129Z,82.01
2022-12-11T02:54:41.013Z,82.46
2022-12-11T02:57:12.869Z,83.47
2022-12-11T02:59:45.092Z,83.76
2022-12-11T03:02:14.208Z,84.32
2022-12-11T03:04:43.009Z,85.36
2022-12-11T03:07:17.060Z,86.13
2022-12-11T03:09:47.163Z,86.01
2022-12-11T03:12:17.875Z,86.20
2022-12-11T03:14:47.966Z,86.30
2022-12-11T03:17:20.013Z,86.43
2022-12-11T03:19:54.323Z,87.18
2022-12-11T03:22:27.624Z,87.55
2022-12-11T03:25:01.742Z,87.65
2022-12-11T03:27:33.189Z,87.34
2022-12-11T03:30:07.028Z,87.51
2022-12-11T03:32:41.700Z,87.03
2022-12-11T03:35:14.976Z,86.87
2022-12-11T03:37:45.307Z,86.52
2022-12-11T03:40:17.376Z,86.59
2022-12-11T03:42:47.738Z,86.80
2022-12-11T03:45:19.090Z,86.54
2022-12-11T03:47:48.441Z,86.33
2022-12-11T03:50:19.306Z,85.55
2022-12-11T03:52:48.534Z,85.97
2022-12-11T03:55:19.562Z,85.58
2022-12-11T03:57:47.122Z,85.68
2022-12-11T04:00:20.076Z,85.26
2022-12-11T04:03:13.277Z,85.11
2022-12-11T04:05:42.529Z,85.39
2022-12-11T04:08:11.356Z,85.25
2022-12-11T04:10:39.087Z,85.51
2022-12-11T04:13:07.283Z,86.25
2022-12-11T04:15:35.754Z,85.94
2022-12-11T04:18:20.910Z,85.99
2022-12-11T04:21:06.261Z,86.43
2022-12-11T04:23:51.658Z,86.80
2022-12-11T04:26:21.598Z,86.71
2022-12-11T04:28:50.653Z,85.87
2022-12-11T04:31:22.056Z,85.76
2022-12-11T04:33:50.327Z,85.18
2022-12-11T04:36:18.446Z,85.16
2022-12-11T04:38:46.098Z,85.67
2022-12-11T04:41:15.807Z,84.57
2022-12-11T04:43:45.000Z,83.15
2022-12-11T04:46:15.115Z,83.13
2022-12-11T04:48:44.472Z,83.78
2022-12-11T04:51:12.169Z,83.51
2022-12-11T04:53:39.841Z,83.52
2022-12-11T04:56:08.487Z,84.57
2022-12-11T04:58:36.857Z,84.53
2022-12-11T05:01:08.941Z,84.71
2022-12-11T05:03:37.043Z,85.18
2022-12-11T05:06:06.661Z,85.57
2022-12-11T05:08:36.022Z,86.45
2022-12-11T05:11:06.371Z,87.02
2022-12-11T05:13:34.578Z,86.33
2022-12-11T05:16:05.359Z,86.55
2022-12-11T05:18:33.074Z,85.39
2022-12-11T05:21:02.601Z,84.26
2022-12-11T05:23:31.909Z,84.25
2022-12-11T05:26:01.258Z,84.04
2022-12-11T05:28:31.341Z,84.54
2022-12-11T05:30:59.483Z,84.15
2022-12-11T05:33:28.356Z,84.89
2022-12-11T05:35:56.302Z,83.83
2022-12-11T05:38:24.164Z,83.93
2022-12-11T05:40:58.916Z,85.02
2022-12-11T05:43:28.164Z,84.52
2022-12-11T05:45:57.149Z,85.05
2022-12-11T05:48:24.757Z,85.22
2022-12-11T05:50:59.226Z,85.18
2022-12-11T05:53:27.419Z,84.59
2022-12-11T05:55:55.372Z,85.03
2022-12-11T05:58:24.354Z,85.16
2022-12-11T06:00:51.968Z,85.68
2022-12-11T06:03:20.143Z,86.06
2022-12-11T06:05:47.783Z,85.96
2022-12-11T06:08:15.443Z,85.69
2022-12-11T06:10:46.369Z,86.02
2022-12-11T06:13:14.176Z,86.27
2022-12-11T06:15:43.760Z,85.96
2022-12-11T06:18:11.676Z,85.65
2022-12-11T06:20:41.909Z,85.83
2022-12-11T06:23:10.873Z,84.95
2022-12-11T06:25:39.279Z,83.55
2022-12-11T06:28:06.913Z,82.80
2022-12-11T06:30:38.484Z,83.42
2022-12-11T06:33:08.534Z,83.75
2022-12-11T06:35:41.701Z,83.88
2022-12-11T06:38:10.589Z,85.00
2022-12-11T06:40:38.419Z,83.95
2022-12-11T06:43:06.264Z,83.94
2022-12-11T06:45:33.902Z,84.50
2022-12-11T06:48:01.704Z,84.27
2022-12-11T06:50:30.672Z,84.00
2022-12-11T06:52:58.359Z,84.52
2022-12-11T06:55:26.021Z,84.73
2022-12-11T06:57:53.945Z,84.44
2022-12-11T07:00:21.623Z,84.42
2022-12-11T07:02:51.338Z,83.53
2022-12-11T07:05:19.073Z,83.68
2022-12-11T07:07:48.139Z,84.21
2022-12-11T07:10:15.888Z,83.35
2022-12-11T07:12:43.511Z,82.43
2022-12-11T07:15:12.181Z,83.36
2022-12-11T07:17:40.405Z,82.78
2022-12-11T07:20:09.143Z,82.77
2022-12-11T07:22:41.624Z,84.06
2022-12-11T07:25:13.926Z,83.64
2022-12-11T07:27:42.490Z,84.29
2022-12-11T07:30:11.362Z,83.40
2022-12-11T07:32:39.265Z,84.04
2022-12-11T07:35:07.364Z,84.23
2022-12-11T07:37:34.931Z,83.87
2022-12-11T07:40:02.809Z,84.48
2022-12-11T07:42:33.861Z,84.28
2022-12-11T07:45:01.528Z,83.43
2022-12-11T07:47:29.508Z,82.67
2022-12-11T07:49:57.090Z,82.60
2022-12-11T07:52:24.699Z,82.43
2022-12-11T07:54:52.914Z,82.53
2022-12-11T07:57:20.970Z,82.06
2022-12-11T07:59:50.319Z,82.86
2022-12-11T08:02:18.170Z,82.78
2022-12-11T08:04:45.836Z,83.23
2022-12-11T08:07:13.662Z,82.73
2022-12-11T08:09:41.370Z,83.21
2022-12-11T08:12:09.167Z,83.28
2022-12-11T08:14:36.919Z,83.32
2022-12-11T08:17:05.888Z,84.85
2022-12-11T08:19:33.476Z,85.04
2022-12-11T08:22:01.066Z,85.87
2022-12-11T08:24:28.669Z,86.26
2022-12-11T08:26:56.302Z,85.58
2022-12-11T08:29:23.871Z,86.24
2022-12-11T08:31:51.516Z,86.53
2022-12-11T08:34:20.489Z,86.73
2022-12-11T08:36:48.128Z,86.71
2022-12-11T08:39:15.804Z,87.05
2022-12-11T08:41:43.432Z,87.32
2022-12-11T08:44:16.658Z,87.16
2022-12-11T08:46:44.828Z,86.81
2022-12-11T08:49:12.395Z,86.75
2022-12-11T08:51:41.323Z,87.23
2022-12-11T08:54:10.806Z,87.00
2022-12-11T08:56:38.385Z,87.36
2022-12-11T08:59:06.207Z,87.29
2022-12-11T09:01:33.977Z,86.79
2022-12-11T09:04:01.607Z,86.11
2022-12-11T09:06:31.230Z,85.15
2022-12-11T09:09:02.491Z,85.34
2022-12-11T09:11:32.387Z,85.42
2022-12-11T09:14:06.940Z,85.58
2022-12-11T09:16:37.636Z,85.06
2022-12-11T09:19:05.326Z,85.67
2022-12-11T09:21:32.973Z,86.96
2022-12-11T09:24:02.490Z,87.01
2022-12-11T09:26:31.764Z,86.55
2022-12-11T09:28:59.825Z,86.14
2022-12-11T09:31:29.683Z,85.71
2022-12-11T09:33:59.890Z,85.26
2022-12-11T09:36:27.949Z,85.85
2022-12-11T09:38:55.749Z,87.20
2022-12-11T09:41:41.282Z,87.63
2022-12-11T09:44:21.385Z,86.84
2022-12-11T09:46:50.620Z,87.00
2022-12-11T09:49:34.874Z,87.09
2022-12-11T09:52:13.468Z,85.77
2022-12-11T09:54:48.845Z,84.59
2022-12-11T09:57:27.427Z,84.97
2022-12-11T10:00:09.602Z,83.67
2022-12-11T10:02:52.122Z,84.54
2022-12-11T10:05:29.037Z,85.48
2022-12-11T10:08:05.609Z,83.95
2022-12-11T10:10:42.167Z,83.76
2022-12-11T10:13:22.848Z,83.58
2022-12-11T10:15:55.574Z,82.86
2022-12-11T10:18:25.827Z,83.23
2022-12-11T10:20:54.713Z,82.79
2022-12-11T10:23:28.944Z,82.85
2022-12-11T10:26:03.900Z,82.38
2022-12-11T10:28:33.529Z,82.68
2022-12-11T10:31:09.852Z,82.56
2022-12-11T10:33:42.791Z,83.03
2022-12-11T10:36:11.753Z,83.53
2022-12-11T10:38:43.914Z,83.45
2022-12-11T10:41:16.051Z,82.74
2022-12-11T10:43:48.245Z,81.96
2022-12-11T10:46:21.283Z,82.71
2022-12-11T10:48:53.205Z,82.42
2022-12-11T10:51:23.088Z,83.01
2022-12-11T10:53:51.986Z,83.79
2022-12-11T10:56:27.466Z,84.17
2022-12-11T10:58:58.624Z,84.79
2022-12-11T11:01:29.412Z,84.89
2022-12-11T11:04:00.970Z,84.87
2022-12-11T11:06:28.781Z,84.35
2022-12-11T11:08:59.978Z,85.13
2022-12-11T11:11:33.920Z,84.55
2022-12-11T11:14:17.490Z,84.01
2022-12-11T11:16:47.424Z,83.55
2022-12-11T11:19:21.348Z,82.15
2022-12-11T11:21:52.572Z,83.06
2022-12-11T11:24:28.716Z,82.54
2022-12-11T11:27:12.808Z,82.32
2022-12-11T11:29:46.608Z,82.26
2022-12-11T11:32:25.737Z,81.88
2022-12-11T11:34:53.571Z,81.79
2022-12-11T11:37:31.148Z,81.13
2022-12-11T11:40:06.769Z,81.55
2022-12-11T11:42:46.652Z,80.57
2022-12-11T11:45:21.599Z,79.84
2022-12-11T11:47:55.412Z,79.22
2022-12-11T11:50:29.101Z,78.32
2022-12-11T11:53:02.477Z,80.01
2022-12-11T11:55:39.092Z,80.96
2022-12-11T11:58:13.765Z,79.68
2022-12-11T12:00:43.301Z,79.61
2022-12-11T12:03:13.658Z,80.59
2022-12-11T12:05:51.493Z,82.12
2022-12-11T12:08:29.259Z,80.03
2022-12-11T12:11:04.604Z,80.03
2022-12-11T12:13:50.754Z,79.97
2022-12-11T12:16:52.075Z,79.26
2022-12-11T12:19:32.648Z,78.98
2022-12-11T12:22:09.262Z,78.44
2022-12-11T12:24:43.373Z,80.02
2022-12-11T12:27:50.567Z,78.97
2022-12-11T12:30:11.741Z,78.84
2022-12-11T12:32:56.379Z,77.77
2022-12-11T12:35:35.244Z,77.92
2022-12-11T12:38:11.488Z,78.09
2022-12-11T12:40:51.464Z,78.87
2022-12-11T12:43:38.188Z,77.94
2022-12-11T12:46:18.838Z,77.27
2022-12-11T12:48:47.982Z,78.24
2022-12-11T12:51:18.359Z,78.94
2022-12-11T12:53:53.789Z,77.97
2022-12-11T12:56:22.938Z,78.26
2022-12-11T12:58:51.085Z,80.61
2022-12-11T13:01:21.911Z,80.39
2022-12-11T13:03:59.020Z,80.36
2022-12-11T13:06:33.931Z,79.41
2022-12-11T13:09:14.415Z,78.34
2022-12-11T13:11:42.682Z,78.89
2022-12-11T13:14:29.611Z,78.03
2022-12-11T13:17:23.755Z,77.40
2022-12-11T13:20:14.886Z,77.04
2022-12-11T13:22:54.853Z,76.34
2022-12-11T13:25:28.903Z,74.95
2022-12-11T13:28:07.120Z,75.09
2022-12-11T13:30:35.309Z,74.81
2022-12-11T13:33:07.041Z,75.28
2022-12-11T13:35:39.268Z,75.42
2022-12-11T13:38:09.255Z,76.16
2022-12-11T13:40:40.956Z,75.96
2022-12-11T13:43:19.464Z,75.73
2022-12-11T13:45:50.968Z,74.56
2022-12-11T13:48:24.220Z,74.45
2022-12-11T13:50:54.526Z,73.44
2022-12-11T13:53:22.855Z,74.70
2022-12-11T13:55:58.154Z,74.48
2022-12-11T13:58:26.203Z,74.19
2022-12-11T14:01:07.558Z,74.22
2022-12-11T14:03:36.186Z,75.56
2022-12-11T14:06:05.786Z,76.66
2022-12-11T14:08:37.254Z,76.58
2022-12-11T14:11:06.111Z,75.99
2022-12-11T14:13:37.075Z,76.24
2022-12-11T14:16:06.917Z,76.16
2022-12-11T14:18:36.946Z,76.26
2022-12-11T14:21:07.293Z,76.06
2022-12-11T14:23:36.898Z,77.36
2022-12-11T14:26:16.175Z,75.66
2022-12-11T14:28:44.315Z,76.71
2022-12-11T14:31:17.820Z,76.09
2022-12-11T14:33:51.073Z,75.33
2022-12-11T14:36:21.391Z,75.77
2022-12-11T14:38:53.362Z,75.44
2022-12-11T14:41:26.023Z,75.35
2022-12-11T14:43:58.335Z,75.99
2022-12-11T14:46:35.923Z,76.90
2022-12-11T14:49:12.963Z,75.68
2022-12-11T14:51:42.679Z,76.94
2022-12-11T14:54:20.491Z,78.01
2022-12-11T14:56:48.524Z,76.74
2022-12-11T14:59:26.974Z,77.86
2022-12-11T15:02:02.755Z,77.44
2022-12-11T15:04:35.318Z,76.53
2022-12-11T15:07:04.511Z,78.94
2022-12-11T15:09:40.710Z,78.37
2022-12-11T15:12:11.996Z,83.89
2022-12-11T15:14:47.992Z,81.17
2022-12-11T15:17:16.434Z,82.24
2022-12-11T15:19:49.622Z,81.76
2022-12-11T15:22:23.044Z,79.93
2022-12-11T15:24:53.799Z,78.73
2022-12-11T15:27:27.579Z,78.54
2022-12-11T15:29:55.368Z,77.71
2022-12-11T15:32:23.295Z,77.59
2022-12-11T15:34:53.148Z,78.00
2022-12-11T15:37:24.659Z,78.52
2022-12-11T15:39:53.396Z,78.31
2022-12-11T15:42:26.786Z,77.47
2022-12-11T15:44:55.334Z,76.98
2022-12-11T15:47:24.885Z,78.30
2022-12-11T15:49:56.072Z,78.49
2022-12-11T15:52:25.442Z,77.54
2022-12-11T15:54:53.459Z,78.35
2022-12-11T15:57:23.658Z,78.67
2022-12-11T15:59:55.333Z,77.77
2022-12-11T16:02:24.377Z,76.96
2022-12-11T16:04:52.116Z,77.99
2022-12-11T16:07:22.185Z,77.76
2022-12-11T16:09:51.814Z,78.79
2022-12-11T16:12:20.429Z,78.34
2022-12-11T16:14:48.206Z,78.61
2022-12-11T16:17:16.704Z,78.01
2022-12-11T16:19:45.289Z,78.11
2022-12-11T16:22:14.160Z,77.27
2022-12-11T16:24:42.102Z,76.62
2022-12-11T16:27:12.424Z,78.05
2022-12-11T16:29:42.208Z,78.30
2022-12-11T16:32:10.112Z,77.97
2022-12-11T16:34:39.048Z,78.50
2022-12-11T16:37:08.199Z,77.12
2022-12-11T16:39:39.222Z,76.59
2022-12-11T16:42:07.106Z,76.57
2022-12-11T16:44:39.649Z,76.65
2022-12-11T16:47:11.386Z,77.83
2022-12-11T16:49:39.214Z,77.85
2022-12-11T16:52:06.806Z,78.21
2022-12-11T16:54:34.509Z,77.93
2022-12-11T16:57:02.257Z,79.41
2022-12-11T17:02:51.583Z,78.21
2022-12-11T17:05:19.445Z,77.63
2022-12-11T17:07:47.023Z,78.40
2022-12-11T17:10:14.789Z,77.25
2022-12-11T17:12:42.379Z,78.32
2022-12-11T17:15:11.203Z,77.20
2022-12-11T17:17:40.023Z,76.37
2022-12-11T17:20:13.406Z,78.21
2022-12-11T17:22:41.312Z,77.51
2022-12-11T17:25:09.845Z,76.81
2022-12-11T17:27:37.676Z,78.05
2022-12-11T17:30:06.026Z,80.06
2022-12-11T17:32:33.793Z,81.90
2022-12-11T17:35:03.978Z,81.78
2022-12-11T17:37:33.601Z,81.07
2022-12-11T17:40:01.287Z,79.38
2022-12-11T17:42:29.022Z,79.83
2022-12-11T17:44:56.864Z,79.07
2022-12-11T17:47:25.079Z,80.12
2022-12-11T17:49:52.829Z,79.82
2022-12-11T17:52:20.540Z,78.39
2022-12-11T17:54:49.833Z,77.79
2022-12-11T17:57:17.494Z,79.10
2022-12-11T17:59:45.349Z,78.42
2022-12-11T18:02:13.065Z,78.52
2022-12-11T18:04:40.887Z,77.64
2022-12-11T18:07:09.263Z,81.35
2022-12-11T18:09:39.576Z,82.66
2022-12-11T18:12:09.305Z,81.87
2022-12-11T18:14:38.301Z,81.75
2022-12-11T18:17:06.438Z,80.98
2022-12-11T18:19:34.687Z,80.88
2022-12-11T18:22:03.579Z,80.11
2022-12-11T18:24:32.878Z,78.93
2022-12-11T18:27:00.676Z,80.09
2022-12-11T18:29:29.713Z,80.45
2022-12-11T18:31:57.394Z,80.43
2022-12-11T18:34:26.214Z,81.11
2022-12-11T18:36:53.881Z,81.52
2022-12-11T18:39:22.358Z,80.70
2022-12-11T18:42:03.418Z,79.83
2022-12-11T18:44:38.988Z,79.90
2022-12-11T18:47:06.976Z,80.30
2022-12-11T18:49:34.733Z,80.90
2022-12-11T18:52:02.445Z,80.64
2022-12-11T18:54:30.475Z,81.59
2022-12-11T18:56:58.498Z,81.02
2022-12-11T18:59:26.694Z,81.67
2022-12-11T19:01:55.822Z,82.53
2022-12-11T19:04:23.577Z,81.28
2022-12-11T19:06:51.513Z,80.59
2022-12-11T19:09:19.283Z,81.93
2022-12-11T19:11:47.466Z,81.26
2022-12-11T19:14:15.500Z,79.49
2022-12-11T19:16:45.377Z,80.32
2022-12-11T19:19:17.395Z,80.47
2022-12-11T19:21:45.671Z,81.42
2022-12-11T19:24:15.696Z,79.24
2022-12-11T19:26:44.056Z,79.75
2022-12-11T19:29:19.723Z,80.41
2022-12-11T19:31:47.603Z,80.98
2022-12-11T19:34:17.324Z,80.49
2022-12-11T19:36:45.154Z,80.73
2022-12-11T19:39:14.329Z,79.72
2022-12-11T19:41:42.812Z,80.46
2022-12-11T19:44:10.671Z,80.66
2022-12-11T19:46:38.489Z,79.90
2022-12-11T19:49:06.779Z,80.43
2022-12-11T19:51:40.409Z,80.46
2022-12-11T19:54:09.698Z,80.27
2022-12-11T19:56:38.095Z,80.48
2022-12-11T19:59:08.634Z,80.49
2022-12-11T20:01:38.077Z,81.66
2022-12-11T20:04:10.097Z,81.24
2022-12-11T20:06:41.369Z,80.81
2022-12-11T20:09:12.094Z,81.23
2022-12-11T20:11:41.808Z,80.73
2022-12-11T20:14:10.338Z,80.86
2022-12-11T20:19:26.629Z,78.52
2022-12-11T20:21:56.462Z,79.54
2022-12-11T20:24:24.396Z,80.47
2022-12-11T20:26:54.172Z,80.60
2022-12-11T20:29:22.058Z,80.83
2022-12-11T20:31:52.511Z,81.97
2022-12-11T20:34:20.972Z,82.46
2022-12-11T20:36:48.870Z,80.73
2022-12-11T20:39:18.209Z,80.42
2022-12-11T20:41:48.112Z,79.58
2022-12-11T20:44:16.030Z,81.14
2022-12-11T20:46:43.779Z,81.30
2022-12-11T20:49:12.933Z,79.72
2022-12-11T20:51:41.561Z,79.97
2022-12-11T20:54:09.372Z,80.13
2022-12-11T20:56:39.116Z,79.66
2022-12-11T20:59:06.800Z,78.64
2022-12-11T21:01:34.921Z,77.72
2022-12-11T21:04:02.989Z,78.32
2022-12-11T21:06:33.180Z,78.17
2022-12-11T21:09:02.293Z,78.76
2022-12-11T21:11:30.269Z,78.70
2022-12-11T21:13:59.239Z,78.92
2022-12-11T21:16:27.614Z,79.28
2022-12-11T21:18:56.043Z,79.84
2022-12-11T21:21:23.937Z,79.71
2022-12-11T21:23:52.273Z,80.48
2022-12-11T21:26:24.038Z,81.31
2022-12-11T21:28:52.002Z,81.67
2022-12-11T21:31:21.388Z,82.05
2022-12-11T21:33:49.521Z,81.67
2022-12-11T21:36:17.568Z,81.82
2022-12-11T21:38:46.168Z,81.35
2022-12-11T21:41:16.809Z,81.88
2022-12-11T21:44:40.955Z,82.42
2022-12-11T21:49:17.109Z,82.50
2022-12-11T21:51:47.661Z,82.44
2022-12-11T21:54:17.693Z,82.93
2022-12-11T21:56:46.478Z,82.83
2022-12-11T21:59:15.247Z,82.00
2022-12-11T22:01:46.136Z,81.70
2022-12-11T22:04:17.116Z,82.57
2022-12-11T22:06:46.896Z,82.97
2022-12-11T22:09:15.645Z,83.64
2022-12-11T22:11:45.140Z,82.87
2022-12-11T22:14:13.391Z,82.71
2022-12-11T22:16:41.046Z,82.60
2022-12-11T22:19:10.190Z,81.67
2022-12-11T22:21:38.228Z,82.01
2022-12-11T22:24:06.548Z,81.17
2022-12-11T22:26:34.436Z,81.69
2022-12-11T22:29:02.143Z,80.89
2022-12-11T22:31:29.812Z,81.28
2022-12-11T22:33:57.694Z,81.25
2022-12-11T22:36:28.138Z,81.51
2022-12-11T22:38:56.251Z,82.29
2022-12-11T22:41:27.049Z,81.97
2022-12-11T22:43:55.373Z,81.60
2022-12-11T22:46:27.447Z,83.34
2022-12-11T22:48:55.183Z,81.77
2022-12-11T22:51:23.249Z,82.34
2022-12-11T22:53:52.255Z,82.17
2022-12-11T22:56:20.086Z,81.54
2022-12-11T22:58:48.375Z,81.50
2022-12-11T23:01:21.214Z,82.51
2022-12-11T23:03:49.752Z,81.47
2022-12-11T23:06:20.262Z,82.53
2022-12-11T23:08:48.139Z,82.11
2022-12-11T23:11:20.223Z,82.70
2022-12-11T23:13:47.918Z,82.17
2022-12-11T23:16:16.838Z,82.87
2022-12-11T23:18:44.918Z,83.53
2022-12-11T23:21:12.946Z,83.04
2022-12-11T23:23:40.884Z,82.96
2022-12-11T23:26:11.233Z,82.68
2022-12-11T23:28:41.315Z,83.09
2022-12-11T23:31:09.835Z,83.71
2022-12-11T23:33:37.906Z,84.48
2022-12-11T23:36:06.605Z,83.50
2022-12-11T23:38:34.362Z,83.88
2022-12-11T23:41:03.593Z,83.08
2022-12-11T23:43:31.277Z,83.26
2022-12-11T23:46:00.257Z,82.88
2022-12-11T23:48:28.157Z,83.67
2022-12-11T23:51:08.073Z,83.11
2022-12-11T23:53:35.798Z,82.72
2022-12-11T23:56:05.856Z,83.28
2022-12-11T23:58:33.614Z,82.33
